sensor_id;sensor_type;location;lat;lon;timestamp;P1;durP1;ratioP1;P2;durP2;ratioP2
7605;SDS011;3844;53.360;9.738;2022-08-03T00:00:51;5.18;;;3.67;;
7605;SDS011;3844;53.360;9.738;2022-08-03T00:02:52;5.65;;;3.92;;
7605;SDS011;3844;53.360;9.738;2022-08-03T00:04:52;7.07;;;4.10;;
7605;SDS011;3844;53.360;9.738;2022-08-03T00:06:53;8.95;;;4.15;;
7605;SDS011;3844;53.360;9.738;2022-08-03T00:08:54;5.22;;;3.88;;
7605;SDS011;3844;53.360;9.738;2022-08-03T00:10:54;6.18;;;3.78;;
7605;SDS011;3844;53.360;9.738;2022-08-03T00:12:55;5.28;;;3.50;;
7605;SDS011;3844;53.360;9.738;2022-08-03T00:14:56;5.68;;;3.88;;
7605;SDS011;3844;53.360;9.738;2022-08-03T00:16:56;6.25;;;3.80;;
7605;SDS011;3844;53.360;9.738;2022-08-03T00:18:57;6.25;;;4.15;;
7605;SDS011;3844;53.360;9.738;2022-08-03T00:20:58;5.88;;;3.85;;
7605;SDS011;3844;53.360;9.738;2022-08-03T00:22:59;6.55;;;3.88;;
7605;SDS011;3844;53.360;9.738;2022-08-03T00:24:59;5.63;;;4.00;;
7605;SDS011;3844;53.360;9.738;2022-08-03T00:27:00;5.05;;;3.78;;
7605;SDS011;3844;53.360;9.738;2022-08-03T00:29:01;6.00;;;4.10;;
7605;SDS011;3844;53.360;9.738;2022-08-03T00:31:02;6.05;;;4.20;;
7605;SDS011;3844;53.360;9.738;2022-08-03T00:33:02;5.90;;;4.15;;
7605;SDS011;3844;53.360;9.738;2022-08-03T00:35:03;6.38;;;4.20;;
7605;SDS011;3844;53.360;9.738;2022-08-03T00:37:04;7.32;;;4.38;;
7605;SDS011;3844;53.360;9.738;2022-08-03T00:39:05;5.60;;;4.40;;
7605;SDS011;3844;53.360;9.738;2022-08-03T00:41:06;6.63;;;4.30;;
7605;SDS011;3844;53.360;9.738;2022-08-03T00:43:07;6.95;;;4.40;;
7605;SDS011;3844;53.360;9.738;2022-08-03T00:45:08;8.35;;;4.53;;
7605;SDS011;3844;53.360;9.738;2022-08-03T00:47:09;6.75;;;4.50;;
7605;SDS011;3844;53.360;9.738;2022-08-03T00:49:10;5.90;;;4.45;;
7605;SDS011;3844;53.360;9.738;2022-08-03T00:51:11;7.57;;;4.43;;
7605;SDS011;3844;53.360;9.738;2022-08-03T00:53:11;6.30;;;4.57;;
7605;SDS011;3844;53.360;9.738;2022-08-03T00:55:13;7.00;;;4.47;;
7605;SDS011;3844;53.360;9.738;2022-08-03T00:57:14;6.47;;;4.65;;
7605;SDS011;3844;53.360;9.738;2022-08-03T00:59:15;6.65;;;4.60;;
7605;SDS011;3844;53.360;9.738;2022-08-03T01:01:16;7.60;;;4.75;;
7605;SDS011;3844;53.360;9.738;2022-08-03T01:03:16;6.70;;;5.00;;
7605;SDS011;3844;53.360;9.738;2022-08-03T01:05:18;6.93;;;5.32;;
7605;SDS011;3844;53.360;9.738;2022-08-03T01:14:40;7.25;;;5.40;;
7605;SDS011;3844;53.360;9.738;2022-08-03T01:28:56;5.93;;;4.90;;
7605;SDS011;3844;53.360;9.738;2022-08-03T01:31:00;6.68;;;5.18;;
7605;SDS011;3844;53.360;9.738;2022-08-03T01:33:08;6.72;;;4.78;;
7605;SDS011;3844;53.360;9.738;2022-08-03T01:35:17;7.50;;;5.47;;
7605;SDS011;3844;53.360;9.738;2022-08-03T01:37:37;5.93;;;4.90;;
7605;SDS011;3844;53.360;9.738;2022-08-03T01:39:53;7.22;;;5.40;;
7605;SDS011;3844;53.360;9.738;2022-08-03T01:42:00;6.97;;;5.10;;
7605;SDS011;3844;53.360;9.738;2022-08-03T01:44:06;6.72;;;5.20;;
7605;SDS011;3844;53.360;9.738;2022-08-03T01:46:08;8.68;;;5.70;;
7605;SDS011;3844;53.360;9.738;2022-08-03T01:48:11;6.75;;;5.20;;
7605;SDS011;3844;53.360;9.738;2022-08-03T01:50:14;7.13;;;5.53;;
7605;SDS011;3844;53.360;9.738;2022-08-03T01:52:20;7.57;;;5.10;;
7605;SDS011;3844;53.360;9.738;2022-08-03T01:54:22;7.97;;;5.40;;
7605;SDS011;3844;53.360;9.738;2022-08-03T01:58:26;6.72;;;5.35;;
7605;SDS011;3844;53.360;9.738;2022-08-03T02:00:28;8.18;;;5.30;;
7605;SDS011;3844;53.360;9.738;2022-08-03T02:02:30;7.50;;;5.40;;
7605;SDS011;3844;53.360;9.738;2022-08-03T02:04:32;7.40;;;5.80;;
7605;SDS011;3844;53.360;9.738;2022-08-03T02:06:37;8.80;;;6.18;;
7605;SDS011;3844;53.360;9.738;2022-08-03T02:08:39;8.32;;;5.50;;
7605;SDS011;3844;53.360;9.738;2022-08-03T02:10:41;8.65;;;5.88;;
7605;SDS011;3844;53.360;9.738;2022-08-03T02:12:45;8.98;;;5.90;;
7605;SDS011;3844;53.360;9.738;2022-08-03T02:14:48;7.68;;;5.65;;
7605;SDS011;3844;53.360;9.738;2022-08-03T02:16:49;7.68;;;5.40;;
7605;SDS011;3844;53.360;9.738;2022-08-03T02:18:51;6.95;;;5.50;;
7605;SDS011;3844;53.360;9.738;2022-08-03T02:20:53;8.25;;;5.75;;
7605;SDS011;3844;53.360;9.738;2022-08-03T02:22:54;6.97;;;5.40;;
7605;SDS011;3844;53.360;9.738;2022-08-03T02:24:55;8.02;;;5.65;;
7605;SDS011;3844;53.360;9.738;2022-08-03T02:26:57;7.75;;;6.03;;
7605;SDS011;3844;53.360;9.738;2022-08-03T02:29:00;7.53;;;6.03;;
7605;SDS011;3844;53.360;9.738;2022-08-03T02:31:06;6.80;;;5.60;;
7605;SDS011;3844;53.360;9.738;2022-08-03T02:33:15;8.32;;;5.55;;
7605;SDS011;3844;53.360;9.738;2022-08-03T02:35:23;6.78;;;5.43;;
7605;SDS011;3844;53.360;9.738;2022-08-03T02:37:28;7.38;;;5.47;;
7605;SDS011;3844;53.360;9.738;2022-08-03T02:39:33;8.85;;;6.55;;
7605;SDS011;3844;53.360;9.738;2022-08-03T02:41:37;9.15;;;6.53;;
7605;SDS011;3844;53.360;9.738;2022-08-03T02:43:44;7.95;;;6.43;;
7605;SDS011;3844;53.360;9.738;2022-08-03T02:45:50;7.47;;;6.15;;
7605;SDS011;3844;53.360;9.738;2022-08-03T02:47:54;8.82;;;6.50;;
7605;SDS011;3844;53.360;9.738;2022-08-03T02:49:59;8.95;;;6.60;;
7605;SDS011;3844;53.360;9.738;2022-08-03T02:52:01;8.60;;;6.35;;
7605;SDS011;3844;53.360;9.738;2022-08-03T02:54:04;8.52;;;6.10;;
7605;SDS011;3844;53.360;9.738;2022-08-03T02:56:07;10.23;;;6.65;;
7605;SDS011;3844;53.360;9.738;2022-08-03T02:58:09;7.63;;;6.20;;
7605;SDS011;3844;53.360;9.738;2022-08-03T03:00:12;8.13;;;6.10;;
7605;SDS011;3844;53.360;9.738;2022-08-03T03:02:14;8.55;;;6.38;;
7605;SDS011;3844;53.360;9.738;2022-08-03T03:04:15;9.52;;;6.50;;
7605;SDS011;3844;53.360;9.738;2022-08-03T03:06:17;7.68;;;6.38;;
7605;SDS011;3844;53.360;9.738;2022-08-03T03:08:19;8.35;;;6.90;;
7605;SDS011;3844;53.360;9.738;2022-08-03T03:10:21;9.73;;;6.68;;
7605;SDS011;3844;53.360;9.738;2022-08-03T03:12:23;8.90;;;6.20;;
7605;SDS011;3844;53.360;9.738;2022-08-03T03:14:25;8.50;;;6.50;;
7605;SDS011;3844;53.360;9.738;2022-08-03T03:16:27;9.07;;;6.55;;
7605;SDS011;3844;53.360;9.738;2022-08-03T03:18:30;7.07;;;5.85;;
7605;SDS011;3844;53.360;9.738;2022-08-03T03:20:32;8.60;;;6.40;;
7605;SDS011;3844;53.360;9.738;2022-08-03T03:22:34;8.38;;;6.70;;
7605;SDS011;3844;53.360;9.738;2022-08-03T03:24:36;8.45;;;6.63;;
7605;SDS011;3844;53.360;9.738;2022-08-03T03:26:38;7.90;;;6.30;;
7605;SDS011;3844;53.360;9.738;2022-08-03T03:28:39;8.10;;;6.57;;
7605;SDS011;3844;53.360;9.738;2022-08-03T03:30:40;8.50;;;6.47;;
7605;SDS011;3844;53.360;9.738;2022-08-03T03:32:41;8.98;;;6.68;;
7605;SDS011;3844;53.360;9.738;2022-08-03T03:34:42;8.38;;;6.35;;
7605;SDS011;3844;53.360;9.738;2022-08-03T03:36:43;9.15;;;6.50;;
7605;SDS011;3844;53.360;9.738;2022-08-03T03:38:44;7.55;;;6.15;;
7605;SDS011;3844;53.360;9.738;2022-08-03T03:40:45;8.35;;;6.10;;
7605;SDS011;3844;53.360;9.738;2022-08-03T03:42:48;8.25;;;6.90;;
7605;SDS011;3844;53.360;9.738;2022-08-03T03:44:49;7.85;;;6.38;;
7605;SDS011;3844;53.360;9.738;2022-08-03T03:46:50;7.82;;;6.55;;
7605;SDS011;3844;53.360;9.738;2022-08-03T03:48:51;7.80;;;6.22;;
7605;SDS011;3844;53.360;9.738;2022-08-03T03:50:52;9.00;;;6.20;;
7605;SDS011;3844;53.360;9.738;2022-08-03T03:52:53;8.98;;;6.40;;
7605;SDS011;3844;53.360;9.738;2022-08-03T03:54:53;9.27;;;6.70;;
7605;SDS011;3844;53.360;9.738;2022-08-03T03:56:54;9.70;;;6.63;;
7605;SDS011;3844;53.360;9.738;2022-08-03T03:58:55;7.85;;;6.07;;
7605;SDS011;3844;53.360;9.738;2022-08-03T04:00:56;7.18;;;6.00;;
7605;SDS011;3844;53.360;9.738;2022-08-03T04:02:56;7.85;;;6.30;;
7605;SDS011;3844;53.360;9.738;2022-08-03T04:04:57;8.95;;;6.55;;
7605;SDS011;3844;53.360;9.738;2022-08-03T04:07:16;7.95;;;6.35;;
7605;SDS011;3844;53.360;9.738;2022-08-03T04:09:36;9.25;;;6.55;;
7605;SDS011;3844;53.360;9.738;2022-08-03T04:11:57;9.38;;;6.75;;
7605;SDS011;3844;53.360;9.738;2022-08-03T04:14:11;8.13;;;6.57;;
7605;SDS011;3844;53.360;9.738;2022-08-03T04:16:15;10.30;;;6.60;;
7605;SDS011;3844;53.360;9.738;2022-08-03T04:18:18;9.02;;;6.88;;
7605;SDS011;3844;53.360;9.738;2022-08-03T04:20:20;8.20;;;6.30;;
7605;SDS011;3844;53.360;9.738;2022-08-03T04:22:23;8.60;;;6.68;;
7605;SDS011;3844;53.360;9.738;2022-08-03T04:24:29;9.18;;;6.75;;
7605;SDS011;3844;53.360;9.738;2022-08-03T04:26:33;7.97;;;6.68;;
7605;SDS011;3844;53.360;9.738;2022-08-03T04:28:38;7.72;;;6.38;;
7605;SDS011;3844;53.360;9.738;2022-08-03T04:30:41;8.35;;;6.80;;
7605;SDS011;3844;53.360;9.738;2022-08-03T04:32:47;8.15;;;5.97;;
7605;SDS011;3844;53.360;9.738;2022-08-03T04:34:51;7.85;;;6.60;;
7605;SDS011;3844;53.360;9.738;2022-08-03T04:36:53;8.27;;;6.45;;
7605;SDS011;3844;53.360;9.738;2022-08-03T04:39:09;7.32;;;6.20;;
7605;SDS011;3844;53.360;9.738;2022-08-03T04:41:15;7.72;;;5.90;;
7605;SDS011;3844;53.360;9.738;2022-08-03T04:43:17;7.82;;;5.78;;
7605;SDS011;3844;53.360;9.738;2022-08-03T04:45:20;7.38;;;6.00;;
7605;SDS011;3844;53.360;9.738;2022-08-03T04:47:21;7.13;;;5.63;;
7605;SDS011;3844;53.360;9.738;2022-08-03T04:49:22;6.75;;;5.75;;
7605;SDS011;3844;53.360;9.738;2022-08-03T04:51:23;7.15;;;6.00;;
7605;SDS011;3844;53.360;9.738;2022-08-03T04:53:25;8.23;;;5.53;;
7605;SDS011;3844;53.360;9.738;2022-08-03T04:55:28;7.32;;;5.55;;
7605;SDS011;3844;53.360;9.738;2022-08-03T04:57:30;5.88;;;4.95;;
7605;SDS011;3844;53.360;9.738;2022-08-03T04:59:31;7.95;;;6.07;;
7605;SDS011;3844;53.360;9.738;2022-08-03T05:01:32;8.10;;;5.80;;
7605;SDS011;3844;53.360;9.738;2022-08-03T05:03:33;6.80;;;5.13;;
7605;SDS011;3844;53.360;9.738;2022-08-03T05:05:34;5.85;;;4.72;;
7605;SDS011;3844;53.360;9.738;2022-08-03T05:07:34;6.32;;;4.57;;
7605;SDS011;3844;53.360;9.738;2022-08-03T05:09:35;6.10;;;4.70;;
7605;SDS011;3844;53.360;9.738;2022-08-03T05:11:37;5.82;;;4.57;;
7605;SDS011;3844;53.360;9.738;2022-08-03T05:13:38;7.35;;;4.43;;
7605;SDS011;3844;53.360;9.738;2022-08-03T05:15:39;7.35;;;4.45;;
7605;SDS011;3844;53.360;9.738;2022-08-03T05:17:40;6.10;;;4.70;;
7605;SDS011;3844;53.360;9.738;2022-08-03T05:19:41;6.95;;;4.88;;
7605;SDS011;3844;53.360;9.738;2022-08-03T05:21:42;5.93;;;4.45;;
7605;SDS011;3844;53.360;9.738;2022-08-03T05:23:43;6.03;;;4.60;;
7605;SDS011;3844;53.360;9.738;2022-08-03T05:25:44;6.38;;;4.40;;
7605;SDS011;3844;53.360;9.738;2022-08-03T05:27:45;8.68;;;5.05;;
7605;SDS011;3844;53.360;9.738;2022-08-03T05:29:46;6.07;;;4.30;;
7605;SDS011;3844;53.360;9.738;2022-08-03T05:31:48;5.57;;;4.30;;
7605;SDS011;3844;53.360;9.738;2022-08-03T05:33:48;5.10;;;3.70;;
7605;SDS011;3844;53.360;9.738;2022-08-03T05:35:49;5.03;;;3.58;;
7605;SDS011;3844;53.360;9.738;2022-08-03T05:37:50;5.03;;;3.63;;
7605;SDS011;3844;53.360;9.738;2022-08-03T05:39:51;5.63;;;3.50;;
7605;SDS011;3844;53.360;9.738;2022-08-03T05:41:51;4.88;;;3.30;;
7605;SDS011;3844;53.360;9.738;2022-08-03T05:43:53;6.45;;;3.75;;
7605;SDS011;3844;53.360;9.738;2022-08-03T05:45:54;6.70;;;4.32;;
7605;SDS011;3844;53.360;9.738;2022-08-03T05:47:55;6.00;;;3.72;;
7605;SDS011;3844;53.360;9.738;2022-08-03T05:49:55;5.22;;;3.70;;
7605;SDS011;3844;53.360;9.738;2022-08-03T05:51:57;5.13;;;3.58;;
7605;SDS011;3844;53.360;9.738;2022-08-03T05:53:58;5.00;;;3.60;;
7605;SDS011;3844;53.360;9.738;2022-08-03T05:55:59;5.25;;;3.30;;
7605;SDS011;3844;53.360;9.738;2022-08-03T05:57:59;5.85;;;3.28;;
7605;SDS011;3844;53.360;9.738;2022-08-03T06:00:03;4.65;;;3.20;;
7605;SDS011;3844;53.360;9.738;2022-08-03T06:02:08;5.40;;;3.45;;
7605;SDS011;3844;53.360;9.738;2022-08-03T06:04:09;5.35;;;3.05;;
7605;SDS011;3844;53.360;9.738;2022-08-03T06:06:10;4.30;;;2.83;;
7605;SDS011;3844;53.360;9.738;2022-08-03T06:08:11;5.18;;;2.80;;
7605;SDS011;3844;53.360;9.738;2022-08-03T06:10:12;4.75;;;3.10;;
7605;SDS011;3844;53.360;9.738;2022-08-03T06:12:13;5.75;;;3.20;;
7605;SDS011;3844;53.360;9.738;2022-08-03T06:14:13;4.63;;;3.00;;
7605;SDS011;3844;53.360;9.738;2022-08-03T06:16:14;4.45;;;2.90;;
7605;SDS011;3844;53.360;9.738;2022-08-03T06:18:15;4.78;;;3.00;;
7605;SDS011;3844;53.360;9.738;2022-08-03T06:20:17;5.05;;;3.20;;
7605;SDS011;3844;53.360;9.738;2022-08-03T06:22:18;4.63;;;3.08;;
7605;SDS011;3844;53.360;9.738;2022-08-03T06:24:19;6.00;;;3.28;;
7605;SDS011;3844;53.360;9.738;2022-08-03T06:26:20;5.07;;;3.30;;
7605;SDS011;3844;53.360;9.738;2022-08-03T06:28:21;6.30;;;2.58;;
7605;SDS011;3844;53.360;9.738;2022-08-03T06:30:22;4.88;;;2.70;;
7605;SDS011;3844;53.360;9.738;2022-08-03T06:32:22;4.75;;;2.70;;
7605;SDS011;3844;53.360;9.738;2022-08-03T06:34:23;5.13;;;2.90;;
7605;SDS011;3844;53.360;9.738;2022-08-03T06:36:24;4.93;;;2.67;;
7605;SDS011;3844;53.360;9.738;2022-08-03T06:38:30;5.75;;;2.55;;
7605;SDS011;3844;53.360;9.738;2022-08-03T06:40:33;4.90;;;2.50;;
7605;SDS011;3844;53.360;9.738;2022-08-03T06:42:38;3.70;;;2.00;;
7605;SDS011;3844;53.360;9.738;2022-08-03T06:44:40;4.32;;;2.00;;
7605;SDS011;3844;53.360;9.738;2022-08-03T06:46:40;5.50;;;2.30;;
7605;SDS011;3844;53.360;9.738;2022-08-03T06:48:42;6.55;;;2.03;;
7605;SDS011;3844;53.360;9.738;2022-08-03T06:50:43;4.78;;;2.20;;
7605;SDS011;3844;53.360;9.738;2022-08-03T06:52:43;4.45;;;2.20;;
7605;SDS011;3844;53.360;9.738;2022-08-03T06:54:44;4.03;;;2.03;;
7605;SDS011;3844;53.360;9.738;2022-08-03T06:56:45;4.70;;;2.10;;
7605;SDS011;3844;53.360;9.738;2022-08-03T06:58:45;4.57;;;1.83;;
7605;SDS011;3844;53.360;9.738;2022-08-03T07:00:47;6.78;;;2.10;;
7605;SDS011;3844;53.360;9.738;2022-08-03T07:02:47;4.10;;;2.35;;
7605;SDS011;3844;53.360;9.738;2022-08-03T07:04:48;6.45;;;2.40;;
7605;SDS011;3844;53.360;9.738;2022-08-03T07:06:49;4.00;;;1.90;;
7605;SDS011;3844;53.360;9.738;2022-08-03T07:08:51;4.55;;;2.00;;
7605;SDS011;3844;53.360;9.738;2022-08-03T07:10:52;4.40;;;2.03;;
7605;SDS011;3844;53.360;9.738;2022-08-03T07:12:52;3.25;;;1.80;;
7605;SDS011;3844;53.360;9.738;2022-08-03T07:14:54;4.05;;;1.90;;
7605;SDS011;3844;53.360;9.738;2022-08-03T07:16:56;3.63;;;2.00;;
7605;SDS011;3844;53.360;9.738;2022-08-03T07:18:56;6.25;;;1.80;;
7605;SDS011;3844;53.360;9.738;2022-08-03T07:20:57;3.75;;;1.98;;
7605;SDS011;3844;53.360;9.738;2022-08-03T07:22:58;3.67;;;1.70;;
7605;SDS011;3844;53.360;9.738;2022-08-03T07:24:58;4.65;;;1.90;;
7605;SDS011;3844;53.360;9.738;2022-08-03T07:26:59;4.47;;;2.03;;
7605;SDS011;3844;53.360;9.738;2022-08-03T07:29:00;3.83;;;1.80;;
7605;SDS011;3844;53.360;9.738;2022-08-03T07:31:00;4.13;;;1.67;;
7605;SDS011;3844;53.360;9.738;2022-08-03T07:33:01;4.07;;;1.90;;
7605;SDS011;3844;53.360;9.738;2022-08-03T07:35:03;4.65;;;2.00;;
7605;SDS011;3844;53.360;9.738;2022-08-03T07:37:04;4.93;;;2.03;;
7605;SDS011;3844;53.360;9.738;2022-08-03T07:39:05;3.88;;;1.70;;
7605;SDS011;3844;53.360;9.738;2022-08-03T07:41:06;4.40;;;1.85;;
7605;SDS011;3844;53.360;9.738;2022-08-03T07:43:07;4.20;;;1.90;;
7605;SDS011;3844;53.360;9.738;2022-08-03T07:45:08;3.80;;;1.60;;
7605;SDS011;3844;53.360;9.738;2022-08-03T07:47:09;5.97;;;1.63;;
7605;SDS011;3844;53.360;9.738;2022-08-03T07:49:10;3.60;;;1.70;;
7605;SDS011;3844;53.360;9.738;2022-08-03T07:51:10;6.20;;;1.90;;
7605;SDS011;3844;53.360;9.738;2022-08-03T07:53:11;5.78;;;1.90;;
7605;SDS011;3844;53.360;9.738;2022-08-03T07:55:12;4.55;;;1.95;;
7605;SDS011;3844;53.360;9.738;2022-08-03T07:57:13;4.38;;;1.60;;
7605;SDS011;3844;53.360;9.738;2022-08-03T07:59:14;3.65;;;1.60;;
7605;SDS011;3844;53.360;9.738;2022-08-03T08:01:14;6.05;;;2.00;;
7605;SDS011;3844;53.360;9.738;2022-08-03T08:03:16;3.85;;;1.65;;
7605;SDS011;3844;53.360;9.738;2022-08-03T08:05:16;4.35;;;1.90;;
7605;SDS011;3844;53.360;9.738;2022-08-03T08:07:17;5.82;;;1.88;;
7605;SDS011;3844;53.360;9.738;2022-08-03T08:09:18;5.18;;;1.83;;
7605;SDS011;3844;53.360;9.738;2022-08-03T08:11:18;4.30;;;1.90;;
7605;SDS011;3844;53.360;9.738;2022-08-03T08:13:21;4.70;;;1.70;;
7605;SDS011;3844;53.360;9.738;2022-08-03T08:15:22;6.00;;;2.22;;
7605;SDS011;3844;53.360;9.738;2022-08-03T08:17:23;4.40;;;1.90;;
7605;SDS011;3844;53.360;9.738;2022-08-03T08:19:23;4.47;;;2.40;;
7605;SDS011;3844;53.360;9.738;2022-08-03T08:21:24;5.97;;;1.90;;
7605;SDS011;3844;53.360;9.738;2022-08-03T08:23:25;5.30;;;2.03;;
7605;SDS011;3844;53.360;9.738;2022-08-03T08:25:25;4.68;;;1.70;;
7605;SDS011;3844;53.360;9.738;2022-08-03T08:27:26;3.72;;;1.90;;
7605;SDS011;3844;53.360;9.738;2022-08-03T08:29:27;4.25;;;1.70;;
7605;SDS011;3844;53.360;9.738;2022-08-03T08:31:28;7.28;;;1.80;;
7605;SDS011;3844;53.360;9.738;2022-08-03T08:33:30;4.63;;;1.48;;
7605;SDS011;3844;53.360;9.738;2022-08-03T08:35:32;4.23;;;1.60;;
7605;SDS011;3844;53.360;9.738;2022-08-03T08:37:33;3.65;;;1.90;;
7605;SDS011;3844;53.360;9.738;2022-08-03T08:39:34;3.83;;;1.60;;
7605;SDS011;3844;53.360;9.738;2022-08-03T08:41:35;5.78;;;1.77;;
7605;SDS011;3844;53.360;9.738;2022-08-03T08:43:36;4.43;;;1.50;;
7605;SDS011;3844;53.360;9.738;2022-08-03T08:45:37;4.20;;;1.60;;
7605;SDS011;3844;53.360;9.738;2022-08-03T08:47:42;3.85;;;1.50;;
7605;SDS011;3844;53.360;9.738;2022-08-03T08:49:45;5.30;;;1.80;;
7605;SDS011;3844;53.360;9.738;2022-08-03T08:51:50;4.97;;;1.70;;
7605;SDS011;3844;53.360;9.738;2022-08-03T08:53:52;4.20;;;1.60;;
7605;SDS011;3844;53.360;9.738;2022-08-03T08:55:54;4.65;;;1.63;;
7605;SDS011;3844;53.360;9.738;2022-08-03T08:58:02;4.32;;;1.60;;
7605;SDS011;3844;53.360;9.738;2022-08-03T09:00:06;4.82;;;1.50;;
7605;SDS011;3844;53.360;9.738;2022-08-03T09:02:10;5.03;;;1.40;;
7605;SDS011;3844;53.360;9.738;2022-08-03T09:04:15;5.47;;;1.50;;
7605;SDS011;3844;53.360;9.738;2022-08-03T09:06:16;5.17;;;1.60;;
7605;SDS011;3844;53.360;9.738;2022-08-03T09:08:17;5.32;;;1.60;;
7605;SDS011;3844;53.360;9.738;2022-08-03T09:10:18;5.18;;;1.48;;
7605;SDS011;3844;53.360;9.738;2022-08-03T09:12:20;7.53;;;1.75;;
7605;SDS011;3844;53.360;9.738;2022-08-03T09:14:21;5.45;;;1.40;;
7605;SDS011;3844;53.360;9.738;2022-08-03T09:16:22;5.30;;;1.20;;
7605;SDS011;3844;53.360;9.738;2022-08-03T09:18:29;4.53;;;1.63;;
7605;SDS011;3844;53.360;9.738;2022-08-03T09:20:31;3.75;;;1.45;;
7605;SDS011;3844;53.360;9.738;2022-08-03T09:22:33;6.13;;;1.40;;
7605;SDS011;3844;53.360;9.738;2022-08-03T09:24:34;4.85;;;1.30;;
7605;SDS011;3844;53.360;9.738;2022-08-03T09:26:36;3.53;;;1.30;;
7605;SDS011;3844;53.360;9.738;2022-08-03T09:28:37;7.38;;;1.40;;
7605;SDS011;3844;53.360;9.738;2022-08-03T09:30:39;5.28;;;1.60;;
7605;SDS011;3844;53.360;9.738;2022-08-03T09:32:42;4.30;;;1.10;;
7605;SDS011;3844;53.360;9.738;2022-08-03T09:34:45;5.60;;;1.35;;
7605;SDS011;3844;53.360;9.738;2022-08-03T09:36:49;6.07;;;1.50;;
7605;SDS011;3844;53.360;9.738;2022-08-03T09:41:00;4.03;;;1.20;;
7605;SDS011;3844;53.360;9.738;2022-08-03T09:43:01;4.38;;;1.40;;
7605;SDS011;3844;53.360;9.738;2022-08-03T09:45:02;6.97;;;1.60;;
7605;SDS011;3844;53.360;9.738;2022-08-03T09:47:04;4.47;;;1.35;;
7605;SDS011;3844;53.360;9.738;2022-08-03T09:49:09;3.87;;;1.37;;
7605;SDS011;3844;53.360;9.738;2022-08-03T09:51:12;4.20;;;1.40;;
7605;SDS011;3844;53.360;9.738;2022-08-03T09:53:14;5.68;;;1.42;;
7605;SDS011;3844;53.360;9.738;2022-08-03T09:55:16;4.43;;;1.40;;
7605;SDS011;3844;53.360;9.738;2022-08-03T09:57:23;6.63;;;1.50;;
7605;SDS011;3844;53.360;9.738;2022-08-03T09:59:28;4.85;;;1.40;;
7605;SDS011;3844;53.360;9.738;2022-08-03T10:01:33;4.70;;;1.60;;
7605;SDS011;3844;53.360;9.738;2022-08-03T10:03:35;5.90;;;1.40;;
7605;SDS011;3844;53.360;9.738;2022-08-03T10:05:37;5.97;;;1.67;;
7605;SDS011;3844;53.360;9.738;2022-08-03T10:07:44;9.02;;;1.52;;
7605;SDS011;3844;53.360;9.738;2022-08-03T10:09:53;6.55;;;1.70;;
7605;SDS011;3844;53.360;9.738;2022-08-03T10:11:54;4.60;;;1.30;;
7605;SDS011;3844;53.360;9.738;2022-08-03T10:13:55;5.22;;;1.50;;
7605;SDS011;3844;53.360;9.738;2022-08-03T10:15:56;5.22;;;1.50;;
7605;SDS011;3844;53.360;9.738;2022-08-03T10:17:56;4.57;;;1.50;;
7605;SDS011;3844;53.360;9.738;2022-08-03T10:19:57;5.20;;;1.50;;
7605;SDS011;3844;53.360;9.738;2022-08-03T10:22:09;4.90;;;1.35;;
7605;SDS011;3844;53.360;9.738;2022-08-03T10:24:14;5.28;;;1.30;;
7605;SDS011;3844;53.360;9.738;2022-08-03T10:26:19;6.65;;;1.42;;
7605;SDS011;3844;53.360;9.738;2022-08-03T10:28:24;4.68;;;1.42;;
7605;SDS011;3844;53.360;9.738;2022-08-03T10:30:27;4.28;;;1.42;;
7605;SDS011;3844;53.360;9.738;2022-08-03T10:32:32;5.70;;;1.50;;
7605;SDS011;3844;53.360;9.738;2022-08-03T10:34:36;5.20;;;1.30;;
7605;SDS011;3844;53.360;9.738;2022-08-03T10:36:39;4.47;;;1.50;;
7605;SDS011;3844;53.360;9.738;2022-08-03T10:38:46;5.75;;;1.60;;
7605;SDS011;3844;53.360;9.738;2022-08-03T10:40:52;4.03;;;1.33;;
7605;SDS011;3844;53.360;9.738;2022-08-03T10:42:55;4.15;;;1.40;;
7605;SDS011;3844;53.360;9.738;2022-08-03T10:45:02;5.65;;;1.33;;
7605;SDS011;3844;53.360;9.738;2022-08-03T10:47:08;4.13;;;1.25;;
7605;SDS011;3844;53.360;9.738;2022-08-03T10:49:13;4.75;;;1.30;;
7605;SDS011;3844;53.360;9.738;2022-08-03T10:51:15;4.55;;;1.42;;
7605;SDS011;3844;53.360;9.738;2022-08-03T10:53:32;4.90;;;1.30;;
7605;SDS011;3844;53.360;9.738;2022-08-03T10:55:38;4.32;;;1.20;;
7605;SDS011;3844;53.360;9.738;2022-08-03T10:57:59;5.18;;;1.30;;
7605;SDS011;3844;53.360;9.738;2022-08-03T11:00:00;4.35;;;1.33;;
7605;SDS011;3844;53.360;9.738;2022-08-03T11:02:03;5.65;;;1.23;;
7605;SDS011;3844;53.360;9.738;2022-08-03T11:06:18;4.80;;;1.10;;
7605;SDS011;3844;53.360;9.738;2022-08-03T11:10:28;5.18;;;1.30;;
7605;SDS011;3844;53.360;9.738;2022-08-03T11:12:31;5.32;;;1.38;;
7605;SDS011;3844;53.360;9.738;2022-08-03T11:14:43;5.05;;;1.25;;
7605;SDS011;3844;53.360;9.738;2022-08-03T11:16:47;5.30;;;1.33;;
7605;SDS011;3844;53.360;9.738;2022-08-03T11:18:56;6.47;;;1.60;;
7605;SDS011;3844;53.360;9.738;2022-08-03T11:21:01;6.65;;;1.30;;
7605;SDS011;3844;53.360;9.738;2022-08-03T11:23:02;4.20;;;1.30;;
7605;SDS011;3844;53.360;9.738;2022-08-03T11:25:02;6.65;;;1.40;;
7605;SDS011;3844;53.360;9.738;2022-08-03T11:29:26;5.40;;;1.48;;
7605;SDS011;3844;53.360;9.738;2022-08-03T11:33:31;4.68;;;1.20;;
7605;SDS011;3844;53.360;9.738;2022-08-03T11:35:32;5.13;;;1.38;;
7605;SDS011;3844;53.360;9.738;2022-08-03T11:40:04;4.50;;;1.20;;
7605;SDS011;3844;53.360;9.738;2022-08-03T11:44:39;4.80;;;1.50;;
7605;SDS011;3844;53.360;9.738;2022-08-03T11:46:40;5.93;;;1.60;;
7605;SDS011;3844;53.360;9.738;2022-08-03T11:48:50;4.88;;;1.60;;
7605;SDS011;3844;53.360;9.738;2022-08-03T11:50:51;3.58;;;1.38;;
7605;SDS011;3844;53.360;9.738;2022-08-03T11:52:52;4.78;;;1.40;;
7605;SDS011;3844;53.360;9.738;2022-08-03T11:54:54;6.65;;;1.50;;
7605;SDS011;3844;53.360;9.738;2022-08-03T11:56:55;5.57;;;1.40;;
7605;SDS011;3844;53.360;9.738;2022-08-03T11:58:56;5.53;;;1.45;;
7605;SDS011;3844;53.360;9.738;2022-08-03T12:01:03;6.65;;;1.50;;
7605;SDS011;3844;53.360;9.738;2022-08-03T12:03:07;4.88;;;1.58;;
7605;SDS011;3844;53.360;9.738;2022-08-03T12:05:10;5.45;;;1.50;;
7605;SDS011;3844;53.360;9.738;2022-08-03T12:07:11;4.63;;;1.30;;
7605;SDS011;3844;53.360;9.738;2022-08-03T12:09:15;4.75;;;1.50;;
7605;SDS011;3844;53.360;9.738;2022-08-03T12:11:16;6.03;;;1.35;;
7605;SDS011;3844;53.360;9.738;2022-08-03T12:13:17;6.13;;;1.50;;
7605;SDS011;3844;53.360;9.738;2022-08-03T12:15:23;5.10;;;1.30;;
7605;SDS011;3844;53.360;9.738;2022-08-03T12:17:35;4.68;;;1.40;;
7605;SDS011;3844;53.360;9.738;2022-08-03T12:19:42;5.70;;;1.50;;
7605;SDS011;3844;53.360;9.738;2022-08-03T12:21:49;4.10;;;1.40;;
7605;SDS011;3844;53.360;9.738;2022-08-03T12:23:54;4.13;;;1.40;;
7605;SDS011;3844;53.360;9.738;2022-08-03T12:26:00;6.03;;;1.38;;
7605;SDS011;3844;53.360;9.738;2022-08-03T12:28:12;5.95;;;1.60;;
7605;SDS011;3844;53.360;9.738;2022-08-03T12:30:23;5.75;;;1.40;;
7605;SDS011;3844;53.360;9.738;2022-08-03T12:32:24;4.50;;;1.40;;
7605;SDS011;3844;53.360;9.738;2022-08-03T12:34:44;8.43;;;1.50;;
7605;SDS011;3844;53.360;9.738;2022-08-03T12:36:49;5.18;;;1.30;;
7605;SDS011;3844;53.360;9.738;2022-08-03T12:38:55;7.20;;;1.65;;
7605;SDS011;3844;53.360;9.738;2022-08-03T12:40:58;4.68;;;1.33;;
7605;SDS011;3844;53.360;9.738;2022-08-03T12:43:00;5.88;;;1.40;;
7605;SDS011;3844;53.360;9.738;2022-08-03T12:45:25;7.82;;;1.55;;
7605;SDS011;3844;53.360;9.738;2022-08-03T12:47:27;6.30;;;1.30;;
7605;SDS011;3844;53.360;9.738;2022-08-03T12:49:28;5.85;;;1.60;;
7605;SDS011;3844;53.360;9.738;2022-08-03T12:53:50;5.75;;;1.30;;
7605;SDS011;3844;53.360;9.738;2022-08-03T12:55:59;7.75;;;1.50;;
7605;SDS011;3844;53.360;9.738;2022-08-03T12:58:02;5.95;;;1.55;;
7605;SDS011;3844;53.360;9.738;2022-08-03T13:00:14;5.75;;;1.40;;
7605;SDS011;3844;53.360;9.738;2022-08-03T13:04:28;5.40;;;1.40;;
7605;SDS011;3844;53.360;9.738;2022-08-03T13:06:33;7.25;;;1.60;;
7605;SDS011;3844;53.360;9.738;2022-08-03T13:08:34;5.18;;;1.40;;
7605;SDS011;3844;53.360;9.738;2022-08-03T13:10:34;4.65;;;1.40;;
7605;SDS011;3844;53.360;9.738;2022-08-03T13:12:48;5.18;;;1.50;;
7605;SDS011;3844;53.360;9.738;2022-08-03T13:14:58;4.75;;;1.40;;
7605;SDS011;3844;53.360;9.738;2022-08-03T13:16:59;6.22;;;1.52;;
7605;SDS011;3844;53.360;9.738;2022-08-03T13:19:00;6.55;;;1.42;;
7605;SDS011;3844;53.360;9.738;2022-08-03T13:21:01;5.93;;;1.33;;
7605;SDS011;3844;53.360;9.738;2022-08-03T13:23:01;4.90;;;1.48;;
7605;SDS011;3844;53.360;9.738;2022-08-03T13:25:02;3.97;;;1.33;;